createdAt,value
2022-12-05T00:01:19.218Z,77.05576954340603
2022-12-05T00:04:16.455Z,77.96602934159864
2022-12-05T00:07:16.612Z,76.72321283573584
2022-12-05T00:11:18.924Z,77.7268630210347
2022-12-05T00:14:16.945Z,78.36978549023249
2022-12-05T00:17:16.734Z,78.05446315229291
2022-12-05T00:21:20.297Z,79.2680886499893
2022-12-05T00:24:16.362Z,78.39659815553637
2022-12-05T00:27:16.347Z,77.46270568208827
2022-12-05T00:31:19.491Z,78.16121202460585
2022-12-05T00:34:16.406Z,77.62191856543855
2022-12-05T00:37:16.564Z,77.914910420572
2022-12-05T00:41:19.759Z,77.20535222458784
2022-12-05T00:44:16.544Z,76.81322050809838
2022-12-05T00:47:16.690Z,76.78030805252628
2022-12-05T00:51:19.696Z,77.66074909677981
2022-12-05T00:54:17.011Z,77.52191713259815
2022-12-05T00:57:16.964Z,76.82671245620712
2022-12-05T01:01:18.716Z,76.6587095549217
2022-12-05T01:04:19.130Z,76.60445100361284
2022-12-05T01:07:16.805Z,76.6478006937167
2022-12-05T01:11:17.765Z,77.39101717993974
2022-12-05T01:14:18.958Z,77.44184124279985
2022-12-05T01:17:16.193Z,76.5516084728911
2022-12-05T01:21:18.014Z,76.95728154336263
2022-12-05T01:24:18.350Z,76.52286577801968
2022-12-05T01:27:16.856Z,76.70886225742755
2022-12-05T01:31:21.321Z,76.32536513742873
2022-12-05T01:34:17.970Z,76.43763920229208
2022-12-05T01:37:16.758Z,76.14889218668247
2022-12-05T01:41:19.619Z,75.93455004528299
2022-12-05T01:45:30.710Z,76.5037461568083
2022-12-05T01:47:18.007Z,75.56647538744895
2022-12-05T01:51:17.803Z,75.88246152550983
2022-12-05T01:54:18.754Z,76.37457096548268
2022-12-05T01:57:17.441Z,75.96803035000428
2022-12-05T02:01:18.127Z,75.06660787602794
2022-12-05T02:04:17.580Z,75.5420771374235
2022-12-05T02:07:18.482Z,75.0126366768835
2022-12-05T02:11:15.952Z,74.32247601927631
2022-12-05T02:14:27.818Z,73.76922247101999
2022-12-05T02:17:27.369Z,73.86151932689508
2022-12-05T02:21:42.024Z,73.84633929545011
2022-12-05T02:24:42.324Z,73.31113187055395
2022-12-05T02:27:29.965Z,73.25527822081793
2022-12-05T02:31:21.517Z,72.97011355120758
2022-12-05T02:34:23.872Z,72.42114914993162
2022-12-05T02:37:22.336Z,73.13211486835871
2022-12-05T02:41:24.006Z,72.87241552719685
2022-12-05T02:44:32.403Z,72.3952212955363
2022-12-05T02:47:20.632Z,72.20735667731927
2022-12-05T02:51:20.774Z,72.63588715828737
2022-12-05T02:54:20.024Z,72.3140890313812
2022-12-05T02:57:18.263Z,72.31359483374175
2022-12-05T03:01:16.922Z,72.47461846291574
2022-12-05T03:04:18.169Z,72.14782854349531
2022-12-05T03:07:18.685Z,72.47532540749916
2022-12-05T03:11:15.956Z,73.50838934324216
2022-12-05T03:14:21.979Z,72.99886990331609
2022-12-05T03:17:20.309Z,73.1753181040632
2022-12-05T03:21:26.226Z,72.36064834746544
2022-12-05T03:24:16.479Z,72.52399805595238
2022-12-05T03:27:21.718Z,73.15848534348955
2022-12-05T03:31:24.003Z,72.56035499956496
2022-12-05T03:34:24.174Z,70.81786547766555
2022-12-05T03:37:24.003Z,70.95350980592748
2022-12-05T03:41:24.289Z,72.66999588523097
2022-12-05T03:44:22.632Z,72.74871044485943
2022-12-05T03:47:21.763Z,72.92553061956411
2022-12-05T03:51:20.997Z,72.42369085249021
2022-12-05T03:54:28.736Z,72.00931430703233
2022-12-05T03:57:22.578Z,72.35618244179099
2022-12-05T04:01:19.827Z,71.91199939676262
2022-12-05T04:04:25.136Z,71.92284469290082
2022-12-05T04:07:18.508Z,71.88188746738953
2022-12-05T04:11:22.285Z,72.76634482206791
2022-12-05T04:14:23.385Z,72.20592528694431
2022-12-05T04:17:24.191Z,72.7897391964406
2022-12-05T04:21:50.589Z,72.845131242071
2022-12-05T04:31:22.217Z,72.42086842319067
2022-12-05T04:34:19.180Z,71.65901096596016
2022-12-05T04:37:21.714Z,71.74301746519022
2022-12-05T04:41:21.817Z,71.84342381432707
2022-12-05T04:44:21.108Z,71.40689428523623
2022-12-05T04:47:20.798Z,71.43702986385193
2022-12-05T04:51:21.289Z,71.13699155641581
2022-12-05T04:54:20.124Z,70.59177258377218
2022-12-05T04:57:23.698Z,70.82024746866293
2022-12-05T05:01:22.177Z,71.0053367601556
2022-12-05T05:04:21.298Z,70.89476909294437
2022-12-05T05:07:17.863Z,71.18154562317422
2022-12-05T05:11:19.078Z,70.91777090247555
2022-12-05T05:14:16.637Z,71.91871748950243
2022-12-05T05:17:16.708Z,71.85418758077276
2022-12-05T05:21:19.643Z,71.79596971769149
2022-12-05T05:24:17.498Z,71.88097251995907
2022-12-05T05:27:16.637Z,72.76092011637338
2022-12-05T05:31:18.314Z,72.33536567988914
2022-12-05T05:34:16.436Z,72.32999911464184
2022-12-05T05:37:16.543Z,72.31606615898686
2022-12-05T05:41:18.394Z,72.58280479684365
2022-12-05T05:44:16.496Z,73.10484047426756
2022-12-05T05:47:16.440Z,73.88793754599862
2022-12-05T05:51:17.783Z,73.90196270781938
2022-12-05T05:54:16.580Z,74.23963305845523
2022-12-05T05:57:20.392Z,73.96815704997155
2022-12-05T06:01:18.815Z,73.58668435266597
2022-12-05T06:04:17.180Z,73.66791149449318
2022-12-05T06:07:17.049Z,73.8717147816939
2022-12-05T06:11:24.850Z,74.60237231014302
2022-12-05T06:14:17.316Z,74.37936395185328
2022-12-05T06:17:17.234Z,74.05383377846942
2022-12-05T06:21:17.001Z,73.96924917955526
2022-12-05T06:24:17.456Z,74.34145376815489
2022-12-05T06:27:16.881Z,74.93905650757046
2022-12-05T06:31:18.093Z,75.15596332749926
2022-12-05T06:34:17.411Z,73.8392904542792
2022-12-05T06:37:16.709Z,74.14201822561837
2022-12-05T06:41:18.943Z,75.18400642197814
2022-12-05T06:44:17.050Z,75.62436616531238
2022-12-05T06:47:17.181Z,75.48488558268812
2022-12-05T06:51:16.611Z,76.10071608759392
2022-12-05T06:54:16.859Z,75.72612497415261
2022-12-05T06:57:17.028Z,76.79053465959873
2022-12-05T07:01:49.456Z,78.07057930101814
2022-12-05T07:04:19.405Z,77.14490528007255
2022-12-05T07:07:17.152Z,77.38177999719461
2022-12-05T07:11:16.389Z,78.09292635209395
2022-12-05T07:14:38.883Z,77.89617923072996
2022-12-05T07:17:16.909Z,78.2799524295883
2022-12-05T07:21:17.790Z,77.44617601636627
2022-12-05T07:24:16.667Z,78.4531333295221
2022-12-05T07:27:20.561Z,78.65190576373952
2022-12-05T07:31:18.179Z,77.64272729114197
2022-12-05T07:34:16.115Z,76.98026220244896
2022-12-05T07:37:16.167Z,78.82051794893214
2022-12-05T07:41:20.864Z,78.59099624849787
2022-12-05T07:44:16.807Z,77.8763350912539
2022-12-05T07:47:16.723Z,78.1378863130358
2022-12-05T07:51:17.383Z,78.91964411305669
2022-12-05T07:54:16.441Z,78.16657924531837
2022-12-05T07:57:16.428Z,79.45274836257477
2022-12-05T08:01:18.959Z,78.73838700255943
2022-12-05T08:04:16.648Z,77.42509442207118
2022-12-05T08:07:16.847Z,77.54980891720719
2022-12-05T08:11:18.394Z,77.05850427714243
2022-12-05T08:14:16.673Z,77.10243937718975
2022-12-05T08:17:16.516Z,77.91866667507352
2022-12-05T08:21:20.008Z,79.52327881390394
2022-12-05T08:24:19.785Z,80.65276103689345
2022-12-05T08:27:19.865Z,79.61933970576997
2022-12-05T08:31:17.642Z,77.14248639643291
2022-12-05T08:34:18.714Z,77.01764894168718
2022-12-05T08:37:16.228Z,76.21535255185759
2022-12-05T08:41:17.376Z,77.16996043203243
2022-12-05T08:44:18.808Z,76.64160929573386
2022-12-05T08:47:17.743Z,78.31076090161947
2022-12-05T08:51:16.656Z,78.03584394023595
2022-12-05T08:54:17.513Z,76.50134636563052
2022-12-05T08:57:16.941Z,76.61965977840953
2022-12-05T09:01:18.415Z,76.41438533939763
2022-12-05T09:04:16.650Z,76.03748552903818
2022-12-05T09:07:17.012Z,76.12769957517668
2022-12-05T09:11:18.584Z,75.85987080503087
2022-12-05T09:14:17.466Z,78.93599127756482
2022-12-05T09:17:16.911Z,79.71464842992172
2022-12-05T09:21:19.284Z,78.5440907197869
2022-12-05T09:24:16.736Z,77.64722575461734
2022-12-05T09:27:16.835Z,77.12201983719571
2022-12-05T09:31:18.896Z,77.46377724519672
2022-12-05T09:34:18.724Z,77.21751326621599
2022-12-05T09:37:38.115Z,75.65097843230042
2022-12-05T09:41:38.057Z,74.86349718582795
2022-12-05T09:44:28.249Z,75.29868175883394
2022-12-05T09:47:31.877Z,75.99314067886414
2022-12-05T09:51:16.216Z,74.32723099658297
2022-12-05T09:54:17.374Z,73.99992150161086
2022-12-05T09:57:17.753Z,73.59162276953174
2022-12-05T10:01:32.403Z,75.9704711352513
2022-12-05T10:04:29.446Z,75.97057779358695
2022-12-05T10:07:24.494Z,74.63776440720741
2022-12-05T10:11:22.532Z,70.74544193404407
2022-12-05T10:14:28.796Z,73.46851650356588
2022-12-05T10:17:23.132Z,71.27732843795314
2022-12-05T10:21:20.667Z,70.06474378383164
2022-12-05T10:24:20.994Z,68.60060321408557
2022-12-05T10:27:19.686Z,67.82301709534643
2022-12-05T10:31:21.840Z,64.93587873475016
2022-12-05T10:34:22.440Z,64.33001546274234
2022-12-05T10:37:18.706Z,60.912144100659525
2022-12-05T10:41:16.950Z,62.42263888788777
2022-12-05T10:44:16.501Z,63.72455523782604
2022-12-05T10:47:16.516Z,63.019650843382145
2022-12-05T10:51:24.997Z,64.53321995263909
2022-12-05T10:54:20.280Z,63.465278929099554
2022-12-05T10:57:23.257Z,64.03474646448498
2022-12-05T11:01:16.712Z,64.14181947590174
2022-12-05T11:04:30.006Z,65.19227872448006
2022-12-05T11:07:28.518Z,64.52852892983341
2022-12-05T11:11:19.709Z,64.18461928433484
2022-12-05T11:14:23.699Z,64.50928838667282
2022-12-05T11:17:25.493Z,63.78593098583673
2022-12-05T11:21:20.033Z,64.26289468679423
2022-12-05T11:24:22.079Z,63.83111104075633
2022-12-05T11:27:26.290Z,64.10865449926354
2022-12-05T11:31:25.290Z,64.8301042943524
2022-12-05T11:34:22.174Z,66.20108303472914
2022-12-05T11:37:23.067Z,65.18903366134496
2022-12-05T11:41:36.228Z,64.91957505810481
2022-12-05T11:44:50.609Z,65.33223262862398
2022-12-05T11:47:28.378Z,64.60258254059562
2022-12-05T11:51:35.890Z,64.3499814256265
2022-12-05T11:55:15.662Z,64.99878339438014
2022-12-05T11:57:27.242Z,66.32131188474581
2022-12-05T12:01:28.034Z,63.12559779398285
2022-12-05T12:04:44.069Z,62.96932513525244
2022-12-05T12:07:28.879Z,61.40518017291532
2022-12-05T12:11:26.653Z,60.420536172456984
2022-12-05T12:14:25.932Z,59.969204047251125
2022-12-05T12:17:25.754Z,60.13910245231199
2022-12-05T12:21:18.072Z,60.85328044829829
2022-12-05T12:24:29.663Z,60.59378298558786
2022-12-05T12:27:31.605Z,59.95401684905047
2022-12-05T12:31:30.809Z,59.206911635288485
2022-12-05T12:34:38.066Z,59.78429067087796
2022-12-05T12:37:25.538Z,58.733791196271966
2022-12-05T12:41:32.102Z,57.90617109081454
2022-12-05T12:44:40.291Z,58.967900212697636
2022-12-05T12:47:31.370Z,58.71670790252993
2022-12-05T12:51:16.894Z,56.59274936123278
2022-12-05T12:55:02.263Z,55.385552662289584
2022-12-05T12:57:27.326Z,55.89415835481231
2022-12-05T13:01:25.618Z,53.595598969929064
2022-12-05T13:04:21.205Z,52.28908662887285
2022-12-05T13:07:21.680Z,52.44183669797488
2022-12-05T13:11:19.471Z,51.184445902120125
2022-12-05T13:14:22.033Z,51.67342865285123
2022-12-05T13:17:20.934Z,49.61564835822653
2022-12-05T13:21:17.500Z,50.26948617841456
2022-12-05T13:24:22.653Z,49.24919460111091
2022-12-05T13:27:19.682Z,50.774773386006856
2022-12-05T13:31:33.411Z,49.61665278169498
2022-12-05T13:34:50.680Z,50.73398158974341
2022-12-05T13:42:24.714Z,51.627772116833405
2022-12-05T13:44:30.881Z,51.87556512210263
2022-12-05T13:47:25.667Z,51.811874631201114
2022-12-05T13:51:28.465Z,51.08486381140921
2022-12-05T13:54:22.631Z,51.86898605191981
2022-12-05T13:57:52.887Z,51.960693089245844
2022-12-05T14:01:55.400Z,51.16295682680318
2022-12-05T14:04:44.466Z,50.80042877935519
2022-12-05T14:07:39.030Z,51.90627381532823
2022-12-05T14:11:16.141Z,51.25783611287743
2022-12-05T14:14:58.384Z,51.583776777706284
2022-12-05T14:17:16.789Z,51.13053548578017
2022-12-05T14:21:23.927Z,50.41643917027782
2022-12-05T14:24:26.536Z,51.54934975692527
2022-12-05T14:27:24.433Z,52.55101909256789
2022-12-05T14:31:30.777Z,52.4900393852278
2022-12-05T14:34:22.514Z,52.76324773223271
2022-12-05T14:37:27.158Z,52.9377978859137
2022-12-05T14:41:25.452Z,53.16350330155699
2022-12-05T14:44:18.951Z,53.72230718638863
2022-12-05T14:47:21.142Z,54.338281267711515
2022-12-05T14:51:56.459Z,54.226374414000716
2022-12-05T14:54:18.114Z,54.28453276838026
2022-12-05T14:57:18.683Z,55.190027381047024
2022-12-05T15:01:21.527Z,55.39000698535132
2022-12-05T15:04:22.200Z,56.05583080655503
2022-12-05T15:07:20.099Z,56.85091381072918
2022-12-05T15:11:31.591Z,56.83951719887645
2022-12-05T15:14:20.314Z,57.048183758955254
2022-12-05T15:17:24.738Z,56.98951936195332
2022-12-05T15:21:23.207Z,57.834857992689976
2022-12-05T15:24:18.674Z,58.22050865175268
2022-12-05T15:27:17.373Z,58.01893522014585
2022-12-05T15:31:16.101Z,57.79927268464062
2022-12-05T15:34:20.397Z,58.21330368072679
2022-12-05T15:37:22.211Z,58.628830772140034
2022-12-05T15:41:17.110Z,58.64176179348938
2022-12-05T15:44:20.059Z,58.163818896337816
2022-12-05T15:47:21.156Z,58.15735077917218
2022-12-05T15:51:17.691Z,58.10378994088031
2022-12-05T15:54:19.237Z,57.32635054145077
2022-12-05T15:57:22.664Z,56.54028685629412
2022-12-05T16:01:20.812Z,55.24748623568927
2022-12-05T16:04:29.579Z,54.76114866391724
2022-12-05T16:07:18.074Z,55.92886858920387
2022-12-05T16:11:18.000Z,55.78012570635918
2022-12-05T16:14:36.963Z,55.49203810392893
2022-12-05T16:17:18.609Z,55.683436294602394
2022-12-05T16:21:38.016Z,57.27513825527084
2022-12-05T16:24:19.962Z,58.870988324037825
2022-12-05T16:27:21.144Z,60.50550668499703
2022-12-05T16:31:17.821Z,61.47601423981481
2022-12-05T16:34:16.965Z,61.51545443167453
2022-12-05T16:37:20.467Z,62.57003153944624
2022-12-05T16:41:16.486Z,63.978303673797114
2022-12-05T16:45:43.300Z,63.7510141560856
2022-12-05T16:47:22.593Z,63.37214896637895
2022-12-05T16:51:18.110Z,64.7275990957351
2022-12-05T16:54:16.752Z,65.02364522023292
2022-12-05T16:57:17.103Z,65.98771453945986
2022-12-05T17:01:20.593Z,66.0270458581058
2022-12-05T17:04:17.722Z,66.70500546419406
2022-12-05T17:07:18.119Z,66.33334296314453
2022-12-05T17:11:20.303Z,67.08367731033924
2022-12-05T17:14:17.989Z,67.69283989636028
2022-12-05T17:17:19.285Z,67.27524827422133
2022-12-05T17:21:18.521Z,66.98889357451019
2022-12-05T17:24:18.424Z,68.66251556313844
2022-12-05T17:27:16.998Z,68.40622464212609
2022-12-05T17:31:19.605Z,69.10184252032933
2022-12-05T17:34:17.411Z,70.32734276058228
2022-12-05T17:37:16.885Z,70.07190696689926
2022-12-05T17:41:17.705Z,71.00327961663642
2022-12-05T17:44:16.024Z,70.27391166472269
2022-12-05T17:47:16.281Z,70.80020493565864
2022-12-05T17:51:17.351Z,70.16929131213902
2022-12-05T17:54:16.957Z,70.77145848936111
2022-12-05T17:57:17.027Z,70.76097068170202
2022-12-05T18:01:19.556Z,71.067123960434
2022-12-05T18:04:22.736Z,71.21723601084432
2022-12-05T18:07:17.183Z,71.27680584014301
2022-12-05T18:11:16.643Z,71.1322122500874
2022-12-05T18:14:17.230Z,71.47352989971158
2022-12-05T18:17:17.087Z,71.21454541569018
2022-12-05T18:21:16.458Z,71.47319755982329
2022-12-05T18:24:16.790Z,72.11913826419908
2022-12-05T18:27:16.932Z,71.9945287616881
2022-12-05T18:31:17.648Z,72.21344608834812
2022-12-05T18:34:17.503Z,72.14934810702842
2022-12-05T18:37:18.512Z,73.65582840447037
2022-12-05T18:41:16.641Z,74.57969988186744
2022-12-05T18:44:16.890Z,75.21225426503572
2022-12-05T18:47:16.988Z,75.44800479622468
2022-12-05T18:51:18.590Z,75.93871076261016
2022-12-05T18:54:17.237Z,75.95318941820217
2022-12-05T18:57:17.410Z,76.106121034024
2022-12-05T19:01:16.300Z,76.60160760011595
2022-12-05T19:04:18.913Z,76.83713361923972
2022-12-05T19:07:16.547Z,77.61433620011215
2022-12-05T19:11:18.113Z,76.8973737306686
2022-12-05T19:14:18.640Z,77.53227538779946
2022-12-05T19:17:16.990Z,77.66910098233132
2022-12-05T19:21:16.313Z,78.45086828228928
2022-12-05T19:24:17.976Z,78.25432390038159
2022-12-05T19:27:16.795Z,77.33330626332575
2022-12-05T19:31:18.624Z,77.03078989113678
2022-12-05T19:34:16.734Z,77.97065437280051
2022-12-05T19:37:16.742Z,77.78383165532472
2022-12-05T19:41:18.433Z,77.65013936626485
2022-12-05T19:44:17.189Z,76.52775776558384
2022-12-05T19:47:16.655Z,76.84650619458372
2022-12-05T19:51:16.404Z,76.54294389034506
2022-12-05T19:54:18.451Z,78.04609990222531
2022-12-05T19:57:18.236Z,77.38815088293798
2022-12-05T20:01:19.409Z,77.58804411543795
2022-12-05T20:04:17.150Z,79.10413415519344
2022-12-05T20:07:16.814Z,77.84113104351715
2022-12-05T20:11:19.055Z,76.05944590530908
2022-12-05T20:14:17.942Z,76.15568502127951
2022-12-05T20:17:17.322Z,77.64753561698133
2022-12-05T20:21:18.268Z,76.75712689026213
2022-12-05T20:24:16.383Z,76.9253384015357
2022-12-05T20:27:16.368Z,76.6399667537385
2022-12-05T20:31:19.707Z,78.75242417593512
2022-12-05T20:34:17.181Z,78.45851980621997
2022-12-05T20:37:16.943Z,77.3747926424585
2022-12-05T20:41:17.820Z,76.36161790868319
2022-12-05T20:44:16.667Z,75.84368816100167
2022-12-05T20:47:16.226Z,75.21381276528724
2022-12-05T20:51:19.113Z,75.10167115483131
2022-12-05T20:54:18.623Z,75.90475964970346
2022-12-05T20:57:17.161Z,76.90405664520742
2022-12-05T21:01:18.595Z,77.79430299304879
2022-12-05T21:04:16.807Z,77.75451887907754
2022-12-05T21:07:16.820Z,78.21165011762552
2022-12-05T21:11:16.448Z,78.37261512331455
2022-12-05T21:14:16.630Z,78.85333602075966
2022-12-05T21:17:16.585Z,78.74917016025614
2022-12-05T21:21:18.101Z,77.64249926834289
2022-12-05T21:24:16.839Z,77.36986529310991
2022-12-05T21:27:16.761Z,77.78351741757307
2022-12-05T21:31:18.847Z,76.87392958269223
2022-12-05T21:34:19.259Z,76.89363221946267
2022-12-05T21:37:16.611Z,78.03231752599893
2022-12-05T21:41:16.175Z,79.08649049334835
2022-12-05T21:44:16.757Z,79.61108956492058
2022-12-05T21:47:16.580Z,79.76566885661141
2022-12-05T21:51:16.587Z,80.09575595115756
2022-12-05T21:54:16.737Z,80.30075313536771
2022-12-05T21:57:16.896Z,80.12721266642666
2022-12-05T22:01:19.646Z,79.91695133518783
2022-12-05T22:04:17.366Z,79.29876530794775
2022-12-05T22:07:17.291Z,78.6089010580291
2022-12-05T22:11:20.293Z,78.42684546430381
2022-12-05T22:14:17.269Z,78.91463579631758
2022-12-05T22:17:17.535Z,79.16426268103042
2022-12-05T22:21:18.496Z,79.55239025066199
2022-12-05T22:24:16.702Z,79.80616906854996
2022-12-05T22:27:16.813Z,80.3113203676394
2022-12-05T22:31:18.106Z,80.37796249332118
2022-12-05T22:34:17.232Z,80.21619291152928
2022-12-05T22:37:17.402Z,79.26044841508752
2022-12-05T22:41:18.332Z,78.45457873771764
2022-12-05T22:44:17.151Z,79.39645301507515
2022-12-05T22:47:16.892Z,79.53293826951617
2022-12-05T22:51:17.886Z,79.88788432314476
2022-12-05T22:54:16.531Z,79.59589819876935
2022-12-05T22:57:16.560Z,79.48556693030719
2022-12-05T23:01:20.767Z,79.306409076307
